sensor_id;sensor_type;location;lat;lon;timestamp;pressure;altitude;pressure_sealevel;temperature;humidity
41234;BME280;26968;42.686;23.352;2023-04-21T00:01:28;94777.16;;;11.35;60.69
41234;BME280;26968;42.686;23.352;2023-04-21T00:03:54;94707.78;;;10.86;60.97
41234;BME280;26968;42.686;23.352;2023-04-21T00:06:20;94829.41;;;11.58;61.11
41234;BME280;26968;42.686;23.352;2023-04-21T00:08:47;94830.69;;;11.61;61.37
41234;BME280;26968;42.686;23.352;2023-04-21T00:11:13;94829.47;;;11.53;61.84
41234;BME280;26968;42.686;23.352;2023-04-21T00:13:40;94794.44;;;11.33;61.90
41234;BME280;26968;42.686;23.352;2023-04-21T00:16:06;94838.59;;;11.47;62.02
41234;BME280;26968;42.686;23.352;2023-04-21T00:18:31;94752.75;;;10.96;62.03
41234;BME280;26968;42.686;23.352;2023-04-21T00:20:57;94781.31;;;11.04;62.68
41234;BME280;26968;42.686;23.352;2023-04-21T00:23:22;94756.16;;;10.77;62.12
41234;BME280;26968;42.686;23.352;2023-04-21T00:25:48;94776.00;;;11.04;61.95
41234;BME280;26968;42.686;23.352;2023-04-21T00:28:14;94834.63;;;11.45;61.83
41234;BME280;26968;42.686;23.352;2023-04-21T00:30:39;94788.69;;;11.07;62.25
41234;BME280;26968;42.686;23.352;2023-04-21T00:33:05;94800.31;;;11.11;62.11
41234;BME280;26968;42.686;23.352;2023-04-21T00:35:30;94832.97;;;11.30;61.95
41234;BME280;26968;42.686;23.352;2023-04-21T00:37:56;94798.50;;;11.06;62.32
41234;BME280;26968;42.686;23.352;2023-04-21T00:40:21;94805.13;;;11.09;62.28
41234;BME280;26968;42.686;23.352;2023-04-21T00:42:47;94838.88;;;11.27;62.73
41234;BME280;26968;42.686;23.352;2023-04-21T00:45:12;94768.25;;;10.89;62.67
41234;BME280;26968;42.686;23.352;2023-04-21T00:47:40;94779.13;;;10.87;63.13
41234;BME280;26968;42.686;23.352;2023-04-21T00:50:05;94834.91;;;11.25;63.07
41234;BME280;26968;42.686;23.352;2023-04-21T00:52:32;94836.56;;;11.20;63.32
41234;BME280;26968;42.686;23.352;2023-04-21T00:54:58;94812.47;;;10.93;63.10
41234;BME280;26968;42.686;23.352;2023-04-21T00:57:24;94827.31;;;11.18;62.96
41234;BME280;26968;42.686;23.352;2023-04-21T00:59:51;94796.56;;;10.93;63.09
41234;BME280;26968;42.686;23.352;2023-04-21T01:02:17;94824.28;;;11.06;62.84
41234;BME280;26968;42.686;23.352;2023-04-21T01:04:43;94710.41;;;10.24;63.41
41234;BME280;26968;42.686;23.352;2023-04-21T01:07:10;94821.91;;;11.04;63.12
41234;BME280;26968;42.686;23.352;2023-04-21T01:09:36;94769.00;;;10.47;63.58
41234;BME280;26968;42.686;23.352;2023-04-21T01:12:03;94703.63;;;10.13;63.40
41234;BME280;26968;42.686;23.352;2023-04-21T01:14:29;94738.91;;;10.37;63.42
41234;BME280;26968;42.686;23.352;2023-04-21T01:16:55;94825.28;;;10.86;63.53
41234;BME280;26968;42.686;23.352;2023-04-21T01:19:22;94818.94;;;10.87;63.55
41234;BME280;26968;42.686;23.352;2023-04-21T01:21:47;94763.41;;;10.48;63.46
41234;BME280;26968;42.686;23.352;2023-04-21T01:24:13;94762.63;;;10.48;63.51
41234;BME280;26968;42.686;23.352;2023-04-21T01:26:39;94773.41;;;10.56;63.43
41234;BME280;26968;42.686;23.352;2023-04-21T01:29:04;94780.28;;;10.57;63.45
41234;BME280;26968;42.686;23.352;2023-04-21T01:31:30;94821.34;;;10.83;63.66
41234;BME280;26968;42.686;23.352;2023-04-21T01:33:55;94824.00;;;10.83;63.87
41234;BME280;26968;42.686;23.352;2023-04-21T01:36:21;94826.06;;;10.68;63.90
41234;BME280;26968;42.686;23.352;2023-04-21T01:38:46;94802.00;;;10.59;63.65
41234;BME280;26968;42.686;23.352;2023-04-21T01:41:12;94820.97;;;10.71;63.94
41234;BME280;26968;42.686;23.352;2023-04-21T01:43:37;94767.81;;;10.34;63.80
41234;BME280;26968;42.686;23.352;2023-04-21T01:46:05;94753.84;;;10.28;63.31
41234;BME280;26968;42.686;23.352;2023-04-21T01:48:30;94706.00;;;9.86;63.49
41234;BME280;26968;42.686;23.352;2023-04-21T01:50:56;94818.81;;;10.50;63.51
41234;BME280;26968;42.686;23.352;2023-04-21T01:53:21;94749.47;;;10.08;64.04
41234;BME280;26968;42.686;23.352;2023-04-21T01:55:47;94807.97;;;10.46;64.05
41234;BME280;26968;42.686;23.352;2023-04-21T01:58:12;94745.59;;;10.01;64.26
41234;BME280;26968;42.686;23.352;2023-04-21T02:00:38;94818.88;;;10.44;64.30
41234;BME280;26968;42.686;23.352;2023-04-21T02:03:03;94796.97;;;10.34;64.18
41234;BME280;26968;42.686;23.352;2023-04-21T02:05:29;94736.34;;;9.98;64.50
41234;BME280;26968;42.686;23.352;2023-04-21T02:07:54;94710.66;;;9.70;64.19
41234;BME280;26968;42.686;23.352;2023-04-21T02:10:20;94777.34;;;10.06;64.64
41234;BME280;26968;42.686;23.352;2023-04-21T02:12:45;94814.22;;;10.31;64.52
41234;BME280;26968;42.686;23.352;2023-04-21T02:15:11;94748.09;;;9.87;65.09
41234;BME280;26968;42.686;23.352;2023-04-21T02:17:36;94772.66;;;9.98;64.95
41234;BME280;26968;42.686;23.352;2023-04-21T02:20:04;94757.09;;;9.91;64.78
41234;BME280;26968;42.686;23.352;2023-04-21T02:22:30;94796.31;;;10.18;64.75
41234;BME280;26968;42.686;23.352;2023-04-21T02:24:56;94789.69;;;10.16;64.89
41234;BME280;26968;42.686;23.352;2023-04-21T02:27:21;94766.50;;;10.02;64.87
41234;BME280;26968;42.686;23.352;2023-04-21T02:29:47;94808.97;;;10.26;64.41
41234;BME280;26968;42.686;23.352;2023-04-21T02:32:12;94795.28;;;10.14;65.15
41234;BME280;26968;42.686;23.352;2023-04-21T02:34:38;94751.78;;;9.91;64.90
41234;BME280;26968;42.686;23.352;2023-04-21T02:37:03;94788.81;;;9.96;65.56
41234;BME280;26968;42.686;23.352;2023-04-21T02:39:29;94761.41;;;9.82;65.34
41234;BME280;26968;42.686;23.352;2023-04-21T02:41:55;94795.66;;;10.02;65.51
41234;BME280;26968;42.686;23.352;2023-04-21T02:44:20;94809.31;;;10.15;65.40
41234;BME280;26968;42.686;23.352;2023-04-21T02:46:46;94788.75;;;10.01;65.63
41234;BME280;26968;42.686;23.352;2023-04-21T02:49:11;94764.41;;;9.71;66.01
41234;BME280;26968;42.686;23.352;2023-04-21T02:51:36;94798.66;;;9.91;65.67
41234;BME280;26968;42.686;23.352;2023-04-21T02:54:02;94813.66;;;10.05;65.90
41234;BME280;26968;42.686;23.352;2023-04-21T02:56:28;94803.66;;;9.97;65.85
41234;BME280;26968;42.686;23.352;2023-04-21T02:58:54;94792.94;;;10.07;65.09
41234;BME280;26968;42.686;23.352;2023-04-21T03:01:20;94745.84;;;9.76;66.10
41234;BME280;26968;42.686;23.352;2023-04-21T03:03:45;94815.28;;;10.30;65.81
41234;BME280;26968;42.686;23.352;2023-04-21T03:06:11;94785.44;;;10.15;65.39
41234;BME280;26968;42.686;23.352;2023-04-21T03:08:36;94784.69;;;10.14;65.08
41234;BME280;26968;42.686;23.352;2023-04-21T03:11:01;94793.63;;;10.23;64.23
41234;BME280;26968;42.686;23.352;2023-04-21T03:13:27;94811.34;;;10.28;64.81
41234;BME280;26968;42.686;23.352;2023-04-21T03:15:52;94731.19;;;9.83;64.36
41234;BME280;26968;42.686;23.352;2023-04-21T03:18:18;94748.03;;;9.97;64.15
41234;BME280;26968;42.686;23.352;2023-04-21T03:20:43;94772.66;;;9.98;63.93
41234;BME280;26968;42.686;23.352;2023-04-21T03:23:09;94812.59;;;10.06;64.54
41234;BME280;26968;42.686;23.352;2023-04-21T03:25:37;94737.81;;;9.52;64.68
41234;BME280;26968;42.686;23.352;2023-04-21T03:28:02;94794.19;;;9.86;65.09
41234;BME280;26968;42.686;23.352;2023-04-21T03:30:28;94739.69;;;9.51;64.46
41234;BME280;26968;42.686;23.352;2023-04-21T03:32:53;94780.44;;;9.84;64.24
41234;BME280;26968;42.686;23.352;2023-04-21T03:35:23;94781.28;;;9.80;64.35
41234;BME280;26968;42.686;23.352;2023-04-21T03:37:48;94823.78;;;9.98;64.76
41234;BME280;26968;42.686;23.352;2023-04-21T03:40:14;94820.66;;;9.91;64.75
41234;BME280;26968;42.686;23.352;2023-04-21T03:42:39;94692.22;;;8.92;65.13
41234;BME280;26968;42.686;23.352;2023-04-21T03:45:07;94800.19;;;9.68;64.83
41234;BME280;26968;42.686;23.352;2023-04-21T03:47:33;94768.53;;;9.53;64.78
41234;BME280;26968;42.686;23.352;2023-04-21T03:49:58;94801.25;;;9.62;64.92
41234;BME280;26968;42.686;23.352;2023-04-21T03:52:24;94795.91;;;9.72;65.00
41234;BME280;26968;42.686;23.352;2023-04-21T03:54:50;94814.25;;;9.92;64.67
41234;BME280;26968;42.686;23.352;2023-04-21T03:57:15;94759.22;;;9.55;64.68
41234;BME280;26968;42.686;23.352;2023-04-21T03:59:41;94830.50;;;10.20;64.50
41234;BME280;26968;42.686;23.352;2023-04-21T04:02:07;94767.25;;;9.79;64.49
41234;BME280;26968;42.686;23.352;2023-04-21T04:04:33;94840.81;;;10.16;64.62
41234;BME280;26968;42.686;23.352;2023-04-21T04:06:58;94844.31;;;10.12;64.14
41234;BME280;26968;42.686;23.352;2023-04-21T04:09:24;94721.50;;;9.40;64.54
41234;BME280;26968;42.686;23.352;2023-04-21T04:11:49;94744.13;;;9.56;63.66
41234;BME280;26968;42.686;23.352;2023-04-21T04:14:15;94779.03;;;9.92;63.80
41234;BME280;26968;42.686;23.352;2023-04-21T04:16:41;94820.41;;;10.17;63.86
41234;BME280;26968;42.686;23.352;2023-04-21T04:19:06;94858.63;;;10.44;63.87
41234;BME280;26968;42.686;23.352;2023-04-21T04:21:32;94586.34;;;8.68;63.54
41234;BME280;26968;42.686;23.352;2023-04-21T04:23:58;94846.41;;;10.20;63.28
41234;BME280;26968;42.686;23.352;2023-04-21T04:26:24;94872.72;;;10.40;63.09
41234;BME280;26968;42.686;23.352;2023-04-21T04:28:51;94787.88;;;9.82;63.08
41234;BME280;26968;42.686;23.352;2023-04-21T04:31:17;94885.19;;;10.39;63.35
41234;BME280;26968;42.686;23.352;2023-04-21T04:33:43;94805.22;;;9.98;62.63
41234;BME280;26968;42.686;23.352;2023-04-21T04:36:09;94862.69;;;10.37;63.05
41234;BME280;26968;42.686;23.352;2023-04-21T04:38:36;94784.97;;;9.84;62.78
41234;BME280;26968;42.686;23.352;2023-04-21T04:41:02;94857.41;;;10.32;62.61
41234;BME280;26968;42.686;23.352;2023-04-21T04:43:29;94885.94;;;10.45;62.86
41234;BME280;26968;42.686;23.352;2023-04-21T04:45:58;94837.56;;;10.29;62.75
41234;BME280;26968;42.686;23.352;2023-04-21T04:48:23;94864.41;;;10.52;62.74
41234;BME280;26968;42.686;23.352;2023-04-21T04:50:49;94866.19;;;10.56;62.64
41234;BME280;26968;42.686;23.352;2023-04-21T04:53:15;94879.56;;;10.75;62.77
41234;BME280;26968;42.686;23.352;2023-04-21T04:55:41;94868.53;;;10.87;62.33
41234;BME280;26968;42.686;23.352;2023-04-21T04:58:06;94871.91;;;10.92;62.61
41234;BME280;26968;42.686;23.352;2023-04-21T05:00:32;94893.03;;;11.02;62.25
41234;BME280;26968;42.686;23.352;2023-04-21T05:02:57;94822.16;;;10.60;61.87
41234;BME280;26968;42.686;23.352;2023-04-21T05:05:23;94785.84;;;10.32;62.07
41234;BME280;26968;42.686;23.352;2023-04-21T05:07:49;94809.44;;;10.33;62.83
41234;BME280;26968;42.686;23.352;2023-04-21T05:10:14;94887.91;;;10.87;62.91
41234;BME280;26968;42.686;23.352;2023-04-21T05:12:40;94750.66;;;9.97;62.96
41234;BME280;26968;42.686;23.352;2023-04-21T05:15:06;94814.38;;;10.45;63.07
41234;BME280;26968;42.686;23.352;2023-04-21T05:17:32;94855.50;;;10.66;62.79
41234;BME280;26968;42.686;23.352;2023-04-21T05:19:57;94816.38;;;10.53;62.99
41234;BME280;26968;42.686;23.352;2023-04-21T05:22:23;94837.50;;;10.63;63.09
41234;BME280;26968;42.686;23.352;2023-04-21T05:24:48;94764.47;;;10.23;63.04
41234;BME280;26968;42.686;23.352;2023-04-21T05:27:14;94882.75;;;11.19;62.84
41234;BME280;26968;42.686;23.352;2023-04-21T05:29:39;94892.25;;;11.26;62.36
41234;BME280;26968;42.686;23.352;2023-04-21T05:32:04;94733.81;;;10.12;62.36
41234;BME280;26968;42.686;23.352;2023-04-21T05:34:30;94828.75;;;10.87;62.04
41234;BME280;26968;42.686;23.352;2023-04-21T05:36:57;94850.84;;;11.25;61.82
41234;BME280;26968;42.686;23.352;2023-04-21T05:39:23;94858.81;;;11.25;61.54
41234;BME280;26968;42.686;23.352;2023-04-21T05:41:48;94891.19;;;11.45;61.66
41234;BME280;26968;42.686;23.352;2023-04-21T05:44:15;94887.94;;;11.30;61.06
41234;BME280;26968;42.686;23.352;2023-04-21T05:46:41;94852.84;;;10.90;61.06
41234;BME280;26968;42.686;23.352;2023-04-21T05:49:07;94814.78;;;10.76;60.79
41234;BME280;26968;42.686;23.352;2023-04-21T05:51:32;94862.00;;;11.03;61.11
41234;BME280;26968;42.686;23.352;2023-04-21T05:53:58;94810.59;;;10.51;61.40
41234;BME280;26968;42.686;23.352;2023-04-21T05:56:23;94891.63;;;11.10;61.29
41234;BME280;26968;42.686;23.352;2023-04-21T05:58:49;94890.84;;;11.09;61.61
41234;BME280;26968;42.686;23.352;2023-04-21T06:01:14;94897.19;;;10.84;61.60
41234;BME280;26968;42.686;23.352;2023-04-21T06:03:40;94844.13;;;10.61;62.06
41234;BME280;26968;42.686;23.352;2023-04-21T06:06:06;94880.38;;;10.94;62.25
41234;BME280;26968;42.686;23.352;2023-04-21T06:08:33;94888.34;;;10.94;61.86
41234;BME280;26968;42.686;23.352;2023-04-21T06:10:59;94875.31;;;10.98;62.28
41234;BME280;26968;42.686;23.352;2023-04-21T06:13:26;94865.19;;;10.76;62.58
41234;BME280;26968;42.686;23.352;2023-04-21T06:15:54;94829.78;;;10.67;62.39
41234;BME280;26968;42.686;23.352;2023-04-21T06:18:20;94812.63;;;10.59;62.53
41234;BME280;26968;42.686;23.352;2023-04-21T06:20:53;94870.16;;;11.06;62.42
41234;BME280;26968;42.686;23.352;2023-04-21T06:23:21;94872.16;;;10.96;63.23
41234;BME280;26968;42.686;23.352;2023-04-21T06:25:58;94868.31;;;10.83;62.89
41234;BME280;26968;42.686;23.352;2023-04-21T06:28:24;94855.34;;;10.81;62.79
41234;BME280;26968;42.686;23.352;2023-04-21T06:30:50;94835.69;;;10.82;63.23
41234;BME280;26968;42.686;23.352;2023-04-21T06:33:15;94882.31;;;11.12;63.03
41234;BME280;26968;42.686;23.352;2023-04-21T06:35:41;94874.34;;;11.12;63.27
41234;BME280;26968;42.686;23.352;2023-04-21T06:38:07;94870.22;;;11.25;63.09
41234;BME280;26968;42.686;23.352;2023-04-21T06:40:33;94873.09;;;11.29;62.98
41234;BME280;26968;42.686;23.352;2023-04-21T06:42:58;94868.63;;;11.24;62.75
41234;BME280;26968;42.686;23.352;2023-04-21T06:45:24;94842.31;;;11.28;63.23
41234;BME280;26968;42.686;23.352;2023-04-21T06:47:49;94865.84;;;11.53;62.63
41234;BME280;26968;42.686;23.352;2023-04-21T06:50:15;94861.50;;;11.43;62.46
41234;BME280;26968;42.686;23.352;2023-04-21T06:52:40;94874.19;;;11.46;62.43
41234;BME280;26968;42.686;23.352;2023-04-21T06:55:06;94833.59;;;11.22;62.67
41234;BME280;26968;42.686;23.352;2023-04-21T06:57:31;94820.13;;;11.37;62.85
41234;BME280;26968;42.686;23.352;2023-04-21T06:59:57;94827.03;;;11.38;62.55
41234;BME280;26968;42.686;23.352;2023-04-21T07:02:22;94759.50;;;11.07;62.22
41234;BME280;26968;42.686;23.352;2023-04-21T07:04:48;94781.31;;;11.22;62.28
41234;BME280;26968;42.686;23.352;2023-04-21T07:07:13;94804.06;;;11.29;62.15
41234;BME280;26968;42.686;23.352;2023-04-21T07:09:38;94854.16;;;11.73;61.98
41234;BME280;26968;42.686;23.352;2023-04-21T07:12:04;94809.00;;;11.54;62.51
41234;BME280;26968;42.686;23.352;2023-04-21T07:14:30;94831.91;;;11.69;62.03
41234;BME280;26968;42.686;23.352;2023-04-21T07:16:55;94876.22;;;11.92;61.20
41234;BME280;26968;42.686;23.352;2023-04-21T07:19:24;94802.47;;;11.46;61.39
41234;BME280;26968;42.686;23.352;2023-04-21T07:21:50;94869.50;;;11.81;61.13
41234;BME280;26968;42.686;23.352;2023-04-21T07:24:15;94815.47;;;11.48;61.17
41234;BME280;26968;42.686;23.352;2023-04-21T07:26:40;94826.53;;;11.74;61.17
41234;BME280;26968;42.686;23.352;2023-04-21T07:29:06;94864.88;;;12.05;61.11
41234;BME280;26968;42.686;23.352;2023-04-21T07:31:31;94871.69;;;12.11;59.87
41234;BME280;26968;42.686;23.352;2023-04-21T07:33:57;94816.69;;;11.93;60.45
41234;BME280;26968;42.686;23.352;2023-04-21T07:36:22;94854.72;;;12.26;59.97
41234;BME280;26968;42.686;23.352;2023-04-21T07:38:48;94814.84;;;12.07;60.19
41234;BME280;26968;42.686;23.352;2023-04-21T07:41:14;94809.56;;;12.21;60.61
41234;BME280;26968;42.686;23.352;2023-04-21T07:43:39;94830.69;;;12.31;59.72
41234;BME280;26968;42.686;23.352;2023-04-21T07:46:05;94864.88;;;12.51;59.20
41234;BME280;26968;42.686;23.352;2023-04-21T07:48:32;94863.00;;;12.38;58.94
41234;BME280;26968;42.686;23.352;2023-04-21T07:50:58;94870.31;;;12.46;58.78
41234;BME280;26968;42.686;23.352;2023-04-21T07:53:25;94855.81;;;12.38;58.57
41234;BME280;26968;42.686;23.352;2023-04-21T07:55:50;94781.69;;;12.05;59.30
41234;BME280;26968;42.686;23.352;2023-04-21T07:58:15;94820.56;;;12.47;58.83
41234;BME280;26968;42.686;23.352;2023-04-21T08:00:41;94811.91;;;12.41;58.91
41234;BME280;26968;42.686;23.352;2023-04-21T08:03:07;94871.34;;;12.91;58.31
41234;BME280;26968;42.686;23.352;2023-04-21T08:05:32;94851.16;;;13.04;58.06
41234;BME280;26968;42.686;23.352;2023-04-21T08:07:58;94855.78;;;12.98;57.84
41234;BME280;26968;42.686;23.352;2023-04-21T08:10:24;94829.94;;;13.12;57.69
41234;BME280;26968;42.686;23.352;2023-04-21T08:12:49;94850.41;;;13.17;56.91
41234;BME280;26968;42.686;23.352;2023-04-21T08:15:15;94747.97;;;12.60;56.77
41234;BME280;26968;42.686;23.352;2023-04-21T08:17:40;94815.50;;;13.19;57.82
41234;BME280;26968;42.686;23.352;2023-04-21T08:20:06;94819.22;;;13.31;56.48
41234;BME280;26968;42.686;23.352;2023-04-21T08:22:32;94849.97;;;13.73;56.16
41234;BME280;26968;42.686;23.352;2023-04-21T08:24:57;94857.59;;;13.80;55.53
41234;BME280;26968;42.686;23.352;2023-04-21T08:27:23;94852.84;;;13.77;54.94
41234;BME280;26968;42.686;23.352;2023-04-21T08:29:49;94833.66;;;13.52;55.44
41234;BME280;26968;42.686;23.352;2023-04-21T08:32:14;94844.59;;;13.65;54.69
41234;BME280;26968;42.686;23.352;2023-04-21T08:34:49;94865.75;;;13.83;54.48
41234;BME280;26968;42.686;23.352;2023-04-21T08:37:16;94782.00;;;13.40;55.11
41234;BME280;26968;42.686;23.352;2023-04-21T08:39:44;94838.63;;;13.45;53.88
41234;BME280;26968;42.686;23.352;2023-04-21T08:42:12;94877.84;;;13.67;54.34
41234;BME280;26968;42.686;23.352;2023-04-21T08:44:38;94778.34;;;13.36;54.24
41234;BME280;26968;42.686;23.352;2023-04-21T08:47:09;94797.91;;;13.67;53.80
41234;BME280;26968;42.686;23.352;2023-04-21T08:49:36;94771.38;;;13.62;54.32
41234;BME280;26968;42.686;23.352;2023-04-21T08:52:02;94817.19;;;13.86;54.63
41234;BME280;26968;42.686;23.352;2023-04-21T08:54:27;94831.78;;;14.34;54.56
41234;BME280;26968;42.686;23.352;2023-04-21T08:56:53;94809.97;;;14.09;53.54
41234;BME280;26968;42.686;23.352;2023-04-21T08:59:18;94831.94;;;14.37;53.52
41234;BME280;26968;42.686;23.352;2023-04-21T09:02:06;94840.38;;;14.30;53.55
41234;BME280;26968;42.686;23.352;2023-04-21T09:04:32;94798.94;;;14.02;53.48
41234;BME280;26968;42.686;23.352;2023-04-21T09:06:58;94832.38;;;14.30;53.75
41234;BME280;26968;42.686;23.352;2023-04-21T09:09:24;94761.75;;;13.75;52.50
41234;BME280;26968;42.686;23.352;2023-04-21T09:11:56;94792.88;;;14.10;53.20
41234;BME280;26968;42.686;23.352;2023-04-21T09:14:32;94806.44;;;14.45;52.89
41234;BME280;26968;42.686;23.352;2023-04-21T09:17:02;94804.56;;;14.45;50.96
41234;BME280;26968;42.686;23.352;2023-04-21T09:19:29;94801.03;;;14.36;51.24
41234;BME280;26968;42.686;23.352;2023-04-21T09:21:59;94819.91;;;14.40;52.00
41234;BME280;26968;42.686;23.352;2023-04-21T09:24:25;94766.22;;;14.10;51.32
41234;BME280;26968;42.686;23.352;2023-04-21T09:26:51;94789.34;;;14.23;51.06
41234;BME280;26968;42.686;23.352;2023-04-21T09:29:20;94766.03;;;14.07;51.34
41234;BME280;26968;42.686;23.352;2023-04-21T09:31:46;94766.00;;;14.29;51.75
41234;BME280;26968;42.686;23.352;2023-04-21T09:34:19;94779.84;;;14.62;50.11
41234;BME280;26968;42.686;23.352;2023-04-21T09:36:45;94825.63;;;14.86;48.62
41234;BME280;26968;42.686;23.352;2023-04-21T09:39:12;94798.00;;;14.91;48.90
41234;BME280;26968;42.686;23.352;2023-04-21T09:41:37;94763.72;;;14.76;48.84
41234;BME280;26968;42.686;23.352;2023-04-21T09:44:03;94782.16;;;15.03;47.82
41234;BME280;26968;42.686;23.352;2023-04-21T09:46:32;94767.38;;;14.97;47.72
41234;BME280;26968;42.686;23.352;2023-04-21T09:48:59;94792.75;;;15.25;47.82
41234;BME280;26968;42.686;23.352;2023-04-21T09:51:26;94694.94;;;14.64;47.51
41234;BME280;26968;42.686;23.352;2023-04-21T09:53:58;94770.94;;;15.40;48.06
41234;BME280;26968;42.686;23.352;2023-04-21T09:56:24;94792.03;;;15.59;46.33
41234;BME280;26968;42.686;23.352;2023-04-21T09:58:52;94636.34;;;14.59;46.82
41234;BME280;26968;42.686;23.352;2023-04-21T10:01:18;94749.06;;;15.30;46.70
41234;BME280;26968;42.686;23.352;2023-04-21T10:03:46;94713.38;;;15.09;47.63
41234;BME280;26968;42.686;23.352;2023-04-21T10:06:13;94762.44;;;15.47;47.04
41234;BME280;26968;42.686;23.352;2023-04-21T10:08:39;94756.59;;;15.28;46.42
41234;BME280;26968;42.686;23.352;2023-04-21T10:11:06;94719.50;;;15.00;45.86
41234;BME280;26968;42.686;23.352;2023-04-21T10:13:32;94694.38;;;15.10;45.86
41234;BME280;26968;42.686;23.352;2023-04-21T10:16:05;94792.94;;;16.24;45.95
41234;BME280;26968;42.686;23.352;2023-04-21T10:18:37;94798.31;;;16.15;46.68
41234;BME280;26968;42.686;23.352;2023-04-21T10:21:09;94785.44;;;16.00;47.83
41234;BME280;26968;42.686;23.352;2023-04-21T10:23:35;94791.69;;;16.04;47.24
41234;BME280;26968;42.686;23.352;2023-04-21T10:26:10;94789.94;;;16.80;45.88
41234;BME280;26968;42.686;23.352;2023-04-21T10:28:59;94782.38;;;16.82;46.17
41234;BME280;26968;42.686;23.352;2023-04-21T10:44:40;94742.44;;;17.27;45.35
41234;BME280;26968;42.686;23.352;2023-04-21T10:47:06;94784.16;;;17.58;43.95
41234;BME280;26968;42.686;23.352;2023-04-21T10:49:37;94756.94;;;17.26;43.60
41234;BME280;26968;42.686;23.352;2023-04-21T10:52:07;94758.91;;;17.59;41.80
41234;BME280;26968;42.686;23.352;2023-04-21T10:57:16;94748.28;;;18.37;40.14
41234;BME280;26968;42.686;23.352;2023-04-21T10:59:43;94728.66;;;18.57;39.10
41234;BME280;26968;42.686;23.352;2023-04-21T11:02:16;62207.84;;;-143.51;100.00
41234;BME280;26968;42.686;23.352;2023-04-21T11:04:43;62207.84;;;-143.51;100.00
41234;BME280;26968;42.686;23.352;2023-04-21T11:07:23;62207.84;;;-143.51;100.00
41234;BME280;26968;42.686;23.352;2023-04-21T11:10:06;62207.84;;;-143.51;100.00
41234;BME280;26968;42.686;23.352;2023-04-21T11:12:34;62207.84;;;-143.51;100.00
41234;BME280;26968;42.686;23.352;2023-04-21T11:15:06;62207.84;;;-143.51;100.00
41234;BME280;26968;42.686;23.352;2023-04-21T11:17:32;62207.84;;;-143.51;100.00
41234;BME280;26968;42.686;23.352;2023-04-21T11:19:58;94728.66;;;18.57;39.10
41234;BME280;26968;42.686;23.352;2023-04-21T11:22:25;94763.81;;;18.88;42.50
41234;BME280;26968;42.686;23.352;2023-04-21T11:24:55;94726.53;;;18.87;42.83
41234;BME280;26968;42.686;23.352;2023-04-21T11:27:21;94754.63;;;19.26;41.97
41234;BME280;26968;42.686;23.352;2023-04-21T11:29:48;94669.47;;;18.66;40.53
41234;BME280;26968;42.686;23.352;2023-04-21T11:32:15;94716.34;;;18.93;40.43
41234;BME280;26968;42.686;23.352;2023-04-21T11:34:41;94743.78;;;18.74;40.70
41234;BME280;26968;42.686;23.352;2023-04-21T11:37:07;94765.84;;;18.34;42.44
41234;BME280;26968;42.686;23.352;2023-04-21T11:39:33;94766.88;;;17.76;44.42
41234;BME280;26968;42.686;23.352;2023-04-21T11:41:58;94775.16;;;17.83;44.61
41234;BME280;26968;42.686;23.352;2023-04-21T11:44:39;94734.44;;;17.19;44.51
41234;BME280;26968;42.686;23.352;2023-04-21T11:47:19;94763.66;;;17.32;44.44
41234;BME280;26968;42.686;23.352;2023-04-21T11:49:45;94654.47;;;16.79;44.65
41234;BME280;26968;42.686;23.352;2023-04-21T11:52:28;94751.72;;;17.51;44.31
41234;BME280;26968;42.686;23.352;2023-04-21T11:55:05;94748.19;;;17.80;41.95
41234;BME280;26968;42.686;23.352;2023-04-21T11:57:35;94731.78;;;17.60;41.03
41234;BME280;26968;42.686;23.352;2023-04-21T12:00:03;94773.31;;;17.54;41.08
41234;BME280;26968;42.686;23.352;2023-04-21T12:02:31;94762.81;;;18.03;40.16
41234;BME280;26968;42.686;23.352;2023-04-21T12:07:28;94771.88;;;17.78;40.78
41234;BME280;26968;42.686;23.352;2023-04-21T12:09:54;94742.13;;;17.70;40.60
41234;BME280;26968;42.686;23.352;2023-04-21T12:12:21;94767.25;;;17.66;40.99
41234;BME280;26968;42.686;23.352;2023-04-21T12:14:48;94702.38;;;17.31;40.79
41234;BME280;26968;42.686;23.352;2023-04-21T12:17:14;94755.84;;;17.90;39.20
41234;BME280;26968;42.686;23.352;2023-04-21T12:19:41;94790.25;;;17.88;38.50
41234;BME280;26968;42.686;23.352;2023-04-21T12:22:11;94746.53;;;17.75;39.07
41234;BME280;26968;42.686;23.352;2023-04-21T12:24:37;94733.91;;;17.25;40.27
41234;BME280;26968;42.686;23.352;2023-04-21T12:27:03;94772.78;;;17.61;40.81
41234;BME280;26968;42.686;23.352;2023-04-21T12:29:29;94764.06;;;17.43;40.98
41234;BME280;26968;42.686;23.352;2023-04-21T12:31:55;94773.75;;;17.56;41.09
41234;BME280;26968;42.686;23.352;2023-04-21T12:34:20;94757.72;;;17.77;40.96
41234;BME280;26968;42.686;23.352;2023-04-21T12:36:46;94762.78;;;17.70;40.88
41234;BME280;26968;42.686;23.352;2023-04-21T12:39:12;94770.50;;;17.51;40.92
41234;BME280;26968;42.686;23.352;2023-04-21T12:41:38;94764.81;;;17.73;40.84
41234;BME280;26968;42.686;23.352;2023-04-21T12:44:03;94743.41;;;17.44;40.30
41234;BME280;26968;42.686;23.352;2023-04-21T12:46:29;94738.59;;;17.37;41.20
41234;BME280;26968;42.686;23.352;2023-04-21T12:48:55;94752.66;;;17.76;41.35
41234;BME280;26968;42.686;23.352;2023-04-21T12:51:20;94742.00;;;17.67;41.35
41234;BME280;26968;42.686;23.352;2023-04-21T12:53:46;94759.59;;;17.77;41.90
41234;BME280;26968;42.686;23.352;2023-04-21T12:56:11;94741.72;;;17.60;41.50
41234;BME280;26968;42.686;23.352;2023-04-21T12:58:37;94759.84;;;17.84;41.61
41234;BME280;26968;42.686;23.352;2023-04-21T13:01:02;94696.00;;;17.56;40.78
41234;BME280;26968;42.686;23.352;2023-04-21T13:03:28;94751.59;;;17.89;40.88
41234;BME280;26968;42.686;23.352;2023-04-21T13:05:55;94677.13;;;17.53;40.28